createdAt,value
2023-02-09T00:01:15.583Z,66.90
2023-02-09T00:03:43.280Z,67.00
2023-02-09T00:06:13.966Z,67.00
2023-02-09T00:08:41.440Z,67.10
2023-02-09T00:11:10.634Z,67.20
2023-02-09T00:13:38.282Z,67.20
2023-02-09T00:16:05.566Z,67.20
2023-02-09T00:18:33.780Z,67.10
2023-02-09T00:21:06.728Z,67.10
2023-02-09T00:23:35.145Z,67.00
2023-02-09T00:26:04.850Z,67.10
2023-02-09T00:28:32.593Z,67.10
2023-02-09T00:30:59.588Z,67.10
2023-02-09T00:33:26.605Z,67.10
2023-02-09T00:35:53.550Z,67.00
2023-02-09T00:38:21.688Z,67.00
2023-02-09T00:40:49.256Z,67.20
2023-02-09T00:43:16.223Z,68.00
2023-02-09T00:45:43.199Z,67.30
2023-02-09T00:48:10.186Z,67.40
2023-02-09T00:50:37.248Z,67.60
2023-02-09T00:53:04.333Z,67.60
2023-02-09T00:55:31.344Z,67.50
2023-02-09T00:57:58.338Z,67.60
2023-02-09T01:00:25.441Z,67.70
2023-02-09T01:02:52.613Z,68.00
2023-02-09T01:05:19.856Z,68.00
2023-02-09T01:07:46.838Z,68.00
2023-02-09T01:10:13.882Z,67.80
2023-02-09T01:12:42.047Z,67.70
2023-02-09T01:15:10.846Z,67.70
2023-02-09T01:17:38.457Z,67.70
2023-02-09T01:20:07.149Z,67.70
2023-02-09T01:22:36.453Z,67.60
2023-02-09T01:25:06.348Z,67.70
2023-02-09T01:27:33.870Z,67.80
2023-02-09T01:30:00.846Z,67.90
2023-02-09T01:32:27.879Z,68.00
2023-02-09T01:34:55.585Z,67.90
2023-02-09T01:37:22.825Z,67.90
2023-02-09T01:39:49.824Z,68.00
2023-02-09T01:42:21.406Z,67.80
2023-02-09T01:45:06.554Z,67.80
2023-02-09T01:47:41.775Z,67.80
2023-02-09T01:50:09.243Z,67.80
2023-02-09T01:52:36.447Z,68.00
2023-02-09T01:55:07.413Z,68.40
2023-02-09T01:57:43.146Z,68.50
2023-02-09T02:00:18.914Z,68.50
2023-02-09T02:02:51.233Z,68.50
2023-02-09T02:05:19.118Z,68.40
2023-02-09T02:07:52.018Z,68.40
2023-02-09T02:10:19.058Z,68.60
2023-02-09T02:12:46.474Z,68.90
2023-02-09T02:15:13.463Z,69.00
2023-02-09T02:18:03.401Z,69.00
2023-02-09T02:20:42.271Z,69.00
2023-02-09T02:23:36.400Z,68.90
2023-02-09T02:26:07.225Z,68.90
2023-02-09T02:28:49.650Z,68.90
2023-02-09T02:31:54.373Z,68.80
2023-02-09T02:34:45.750Z,69.10
2023-02-09T02:37:30.835Z,69.10
2023-02-09T02:40:09.865Z,69.10
2023-02-09T02:42:49.382Z,69.10
2023-02-09T02:45:29.199Z,69.30
2023-02-09T02:48:03.682Z,69.20
2023-02-09T02:50:33.278Z,69.20
2023-02-09T02:53:03.391Z,69.00
2023-02-09T02:55:32.716Z,69.10
2023-02-09T02:58:06.337Z,69.00
2023-02-09T03:00:41.580Z,69.10
2023-02-09T03:03:23.096Z,69.20
2023-02-09T03:05:50.638Z,69.20
2023-02-09T03:08:17.663Z,69.00
2023-02-09T03:10:44.940Z,69.30
2023-02-09T03:13:14.911Z,69.30
2023-02-09T03:16:19.493Z,69.40
2023-02-09T03:19:10.315Z,69.40
2023-02-09T03:21:56.935Z,69.50
2023-02-09T03:24:42.936Z,69.40
2023-02-09T03:27:22.009Z,69.40
2023-02-09T03:29:53.916Z,69.40
2023-02-09T03:32:21.536Z,69.10
2023-02-09T03:34:49.166Z,68.90
2023-02-09T03:37:17.593Z,68.90
2023-02-09T03:39:44.727Z,68.70
2023-02-09T03:42:11.753Z,68.70
2023-02-09T03:44:38.979Z,68.80
2023-02-09T03:47:09.114Z,68.80
2023-02-09T03:49:39.386Z,68.90
2023-02-09T03:52:08.626Z,68.90
2023-02-09T03:54:35.720Z,68.90
2023-02-09T03:57:09.141Z,69.00
2023-02-09T03:59:37.766Z,69.00
2023-02-09T04:02:07.301Z,68.90
2023-02-09T04:04:34.553Z,69.00
2023-02-09T04:07:01.623Z,69.10
2023-02-09T04:09:29.255Z,69.20
2023-02-09T04:11:56.342Z,69.10
2023-02-09T04:14:23.635Z,69.00
2023-02-09T04:16:50.715Z,68.80
2023-02-09T04:19:17.746Z,68.90
2023-02-09T04:21:44.843Z,68.90
2023-02-09T04:24:12.120Z,68.80
2023-02-09T04:26:39.111Z,68.80
2023-02-09T04:29:06.092Z,68.70
2023-02-09T04:31:34.823Z,69.00
2023-02-09T04:34:01.978Z,69.00
2023-02-09T04:36:29.185Z,69.00
2023-02-09T04:38:56.367Z,68.90
2023-02-09T04:41:23.346Z,68.90
2023-02-09T04:43:50.399Z,69.00
2023-02-09T04:46:18.591Z,69.20
2023-02-09T04:48:45.957Z,69.00
2023-02-09T04:51:13.390Z,68.70
2023-02-09T04:53:40.833Z,68.60
2023-02-09T04:56:08.173Z,68.60
2023-02-09T04:58:53.836Z,68.60
2023-02-09T05:01:23.921Z,68.70
2023-02-09T05:03:51.163Z,68.50
2023-02-09T05:06:18.542Z,68.60
2023-02-09T05:08:46.236Z,68.60
2023-02-09T05:11:13.330Z,68.60
2023-02-09T05:13:40.489Z,68.50
2023-02-09T05:16:13.490Z,68.50
2023-02-09T05:18:40.499Z,68.50
2023-02-09T05:21:07.505Z,68.50
2023-02-09T05:23:34.465Z,68.60
2023-02-09T05:26:01.468Z,68.70
2023-02-09T05:28:28.621Z,68.90
2023-02-09T05:30:55.576Z,68.60
2023-02-09T05:33:25.040Z,68.60
2023-02-09T05:35:53.680Z,68.70
2023-02-09T05:38:20.642Z,68.70
2023-02-09T05:40:48.025Z,68.80
2023-02-09T05:43:15.274Z,68.90
2023-02-09T05:45:42.194Z,69.10
2023-02-09T05:48:09.176Z,69.10
2023-02-09T05:50:36.124Z,68.80
2023-02-09T05:53:07.797Z,68.90
2023-02-09T05:55:34.932Z,68.80
2023-02-09T05:58:01.837Z,68.80
2023-02-09T06:00:29.939Z,69.20
2023-02-09T06:02:58.625Z,69.00
2023-02-09T06:05:26.319Z,69.00
2023-02-09T06:07:53.641Z,68.90
2023-02-09T06:10:20.900Z,68.90
2023-02-09T06:12:48.146Z,68.70
2023-02-09T06:15:18.658Z,68.80
2023-02-09T06:17:46.411Z,69.00
2023-02-09T06:20:13.322Z,69.00
2023-02-09T06:22:40.448Z,69.00
2023-02-09T06:25:07.521Z,69.00
2023-02-09T06:27:34.591Z,69.00
2023-02-09T06:30:01.642Z,68.90
2023-02-09T06:32:28.549Z,68.80
2023-02-09T06:34:55.433Z,68.90
2023-02-09T06:37:22.447Z,68.80
2023-02-09T06:39:49.412Z,68.80
2023-02-09T06:42:16.403Z,68.90
2023-02-09T06:44:44.324Z,68.80
2023-02-09T06:47:11.336Z,69.00
2023-02-09T06:49:38.261Z,68.90
2023-02-09T06:52:05.706Z,68.90
2023-02-09T06:54:32.819Z,68.90
2023-02-09T06:57:09.323Z,68.90
2023-02-09T06:59:36.223Z,68.70
2023-02-09T07:02:03.262Z,68.50
2023-02-09T07:04:30.251Z,68.40
2023-02-09T07:06:57.113Z,68.30
2023-02-09T07:09:23.956Z,68.50
2023-02-09T07:11:50.855Z,68.30
2023-02-09T07:14:17.797Z,68.10
2023-02-09T07:16:44.648Z,68.00
2023-02-09T07:19:11.527Z,67.80
2023-02-09T07:21:38.537Z,67.90
2023-02-09T07:24:05.815Z,67.90
2023-02-09T07:26:32.762Z,67.90
2023-02-09T07:29:01.007Z,68.10
2023-02-09T07:31:28.092Z,68.10
2023-02-09T07:33:55.917Z,68.00
2023-02-09T07:36:23.111Z,67.90
2023-02-09T07:38:50.141Z,67.70
2023-02-09T07:41:20.900Z,67.60
2023-02-09T07:43:48.060Z,67.60
2023-02-09T07:46:17.151Z,67.80
2023-02-09T07:48:44.385Z,67.80
2023-02-09T07:51:15.719Z,68.00
2023-02-09T07:53:42.982Z,68.10
2023-02-09T07:56:09.868Z,68.10
2023-02-09T07:58:36.841Z,68.60
2023-02-09T08:01:12.470Z,67.80
2023-02-09T08:03:43.030Z,67.90
2023-02-09T08:06:43.291Z,67.80
2023-02-09T08:09:12.000Z,67.80
2023-02-09T08:11:58.866Z,67.90
2023-02-09T08:14:39.898Z,67.80
2023-02-09T08:17:20.199Z,67.90
2023-02-09T08:19:52.610Z,67.80
2023-02-09T08:22:24.889Z,67.50
2023-02-09T08:24:52.393Z,67.50
2023-02-09T08:27:19.455Z,67.60
2023-02-09T08:29:48.869Z,67.50
2023-02-09T08:32:16.023Z,67.40
2023-02-09T08:34:42.943Z,67.50
2023-02-09T08:37:09.982Z,67.40
2023-02-09T08:39:37.081Z,67.50
2023-02-09T08:42:04.322Z,67.50
2023-02-09T08:44:31.426Z,67.50
2023-02-09T08:47:00.460Z,67.30
2023-02-09T08:49:28.081Z,67.30
2023-02-09T08:51:55.192Z,67.20
2023-02-09T08:54:22.187Z,67.30
2023-02-09T08:56:49.146Z,67.20
2023-02-09T08:59:17.322Z,67.30
2023-02-09T09:01:46.097Z,67.30
2023-02-09T09:04:13.143Z,67.30
2023-02-09T09:06:40.269Z,67.20
2023-02-09T09:09:07.192Z,67.10
2023-02-09T09:11:34.078Z,67.10
2023-02-09T09:14:00.978Z,66.90
2023-02-09T09:16:27.966Z,66.90
2023-02-09T09:18:54.916Z,66.90
2023-02-09T09:21:21.809Z,66.80
2023-02-09T09:23:48.892Z,66.70
2023-02-09T09:26:17.350Z,66.80
2023-02-09T09:28:44.778Z,66.80
2023-02-09T09:31:14.796Z,66.80
2023-02-09T09:33:45.964Z,66.60
2023-02-09T09:36:14.623Z,66.70
2023-02-09T09:38:42.176Z,66.60
2023-02-09T09:41:30.129Z,66.50
2023-02-09T09:43:57.657Z,66.50
2023-02-09T09:46:41.867Z,66.40
2023-02-09T09:49:21.170Z,66.20
2023-02-09T09:51:52.978Z,66.10
2023-02-09T09:54:26.502Z,66.00
2023-02-09T09:56:54.525Z,65.90
2023-02-09T09:59:25.567Z,65.90
2023-02-09T10:01:55.170Z,66.10
2023-02-09T10:04:22.202Z,66.00
2023-02-09T10:07:10.225Z,65.80
2023-02-09T10:09:56.801Z,66.10
2023-02-09T10:12:38.618Z,66.00
2023-02-09T10:15:21.936Z,65.90
2023-02-09T10:17:48.864Z,65.70
2023-02-09T10:20:15.956Z,65.50
2023-02-09T10:22:51.148Z,65.40
2023-02-09T10:25:38.811Z,65.30
2023-02-09T10:28:06.632Z,65.40
2023-02-09T10:30:33.867Z,65.40
2023-02-09T10:33:02.907Z,65.30
2023-02-09T10:35:42.349Z,65.30
2023-02-09T10:38:16.796Z,65.20
2023-02-09T10:40:44.083Z,65.20
2023-02-09T10:43:51.050Z,65.10
2023-02-09T10:46:20.828Z,65.10
2023-02-09T10:48:48.038Z,64.90
2023-02-09T10:51:31.416Z,64.70
2023-02-09T10:54:10.388Z,64.80
2023-02-09T10:56:47.518Z,64.80
2023-02-09T10:59:20.948Z,64.80
2023-02-09T11:01:55.860Z,64.80
2023-02-09T11:04:26.628Z,64.60
2023-02-09T11:07:02.854Z,64.30
2023-02-09T11:09:31.916Z,64.10
2023-02-09T11:11:59.218Z,64.80
2023-02-09T11:14:28.475Z,64.10
2023-02-09T11:17:17.657Z,63.90
2023-02-09T11:19:52.002Z,63.70
2023-02-09T11:22:28.976Z,63.60
2023-02-09T11:25:05.149Z,63.40
2023-02-09T11:27:38.060Z,63.30
2023-02-09T11:30:07.931Z,63.10
2023-02-09T11:32:36.956Z,62.90
2023-02-09T11:35:06.657Z,62.80
2023-02-09T11:37:42.009Z,62.40
2023-02-09T11:40:18.808Z,62.10
2023-02-09T11:43:12.001Z,62.00
2023-02-09T11:45:38.912Z,62.00
2023-02-09T11:48:08.521Z,62.10
2023-02-09T11:51:00.421Z,61.90
2023-02-09T11:53:39.569Z,62.00
2023-02-09T11:56:11.021Z,62.10
2023-02-09T11:58:55.217Z,62.00
2023-02-09T12:01:42.349Z,62.40
2023-02-09T12:04:21.038Z,61.20
2023-02-09T12:06:55.288Z,61.20
2023-02-09T12:09:44.999Z,61.20
2023-02-09T12:12:39.368Z,61.20
2023-02-09T12:15:33.838Z,61.00
2023-02-09T12:18:09.955Z,60.80
2023-02-09T12:20:59.000Z,60.60
2023-02-09T12:23:35.260Z,60.70
2023-02-09T12:26:12.172Z,60.80
2023-02-09T12:28:45.934Z,60.70
2023-02-09T12:31:34.573Z,60.70
2023-02-09T12:34:14.874Z,60.60
2023-02-09T12:37:17.131Z,60.50
2023-02-09T12:40:11.557Z,60.40
2023-02-09T12:43:04.806Z,60.20
2023-02-09T12:45:43.623Z,60.20
2023-02-09T12:48:22.942Z,60.00
2023-02-09T12:51:02.751Z,60.60
2023-02-09T12:53:46.382Z,59.90
2023-02-09T12:56:38.353Z,59.80
2023-02-09T12:59:21.371Z,59.70
2023-02-09T13:02:12.296Z,59.80
2023-02-09T13:05:18.415Z,59.70
2023-02-09T13:08:19.090Z,59.50
2023-02-09T13:11:21.450Z,59.50
2023-02-09T13:13:58.669Z,59.50
2023-02-09T13:16:58.481Z,59.30
2023-02-09T13:20:04.956Z,59.10
2023-02-09T13:23:12.600Z,58.40
2023-02-09T13:25:54.243Z,58.00
2023-02-09T13:32:39.026Z,57.50
2023-02-09T13:36:08.899Z,57.10
2023-02-09T13:38:52.318Z,56.90
2023-02-09T13:41:42.398Z,57.00
2023-02-09T13:44:44.428Z,56.70
2023-02-09T13:47:23.988Z,56.30
2023-02-09T13:50:05.247Z,56.30
2023-02-09T13:52:59.383Z,56.40
2023-02-09T13:58:38.822Z,56.00
2023-02-09T14:01:17.846Z,55.70
2023-02-09T14:04:12.536Z,55.50
2023-02-09T14:06:45.138Z,55.20
2023-02-09T14:09:23.902Z,55.30
2023-02-09T14:12:03.051Z,55.30
2023-02-09T14:15:02.250Z,54.90
2023-02-09T14:17:39.062Z,55.30
2023-02-09T14:20:26.000Z,54.80
2023-02-09T14:22:59.527Z,54.40
2023-02-09T14:25:40.593Z,54.40
2023-02-09T14:28:25.747Z,54.40
2023-02-09T14:31:17.387Z,54.30
2023-02-09T14:33:53.071Z,54.20
2023-02-09T14:36:44.647Z,54.40
2023-02-09T14:39:27.169Z,54.40
2023-02-09T14:42:17.898Z,54.50
2023-02-09T14:45:01.804Z,54.70
2023-02-09T14:48:10.315Z,54.80
2023-02-09T14:50:43.247Z,54.50
2023-02-09T14:53:22.211Z,54.30
2023-02-09T14:55:55.102Z,54.20
2023-02-09T14:58:32.569Z,54.10
2023-02-09T15:01:03.561Z,54.20
2023-02-09T15:03:59.028Z,54.20
2023-02-09T15:06:34.128Z,54.10
2023-02-09T15:09:07.897Z,54.10
2023-02-09T15:12:07.901Z,54.80
2023-02-09T15:14:48.340Z,54.20
2023-02-09T15:17:22.813Z,54.30
2023-02-09T15:20:00.196Z,54.50
2023-02-09T15:22:41.640Z,54.60
2023-02-09T15:25:26.842Z,54.60
2023-02-09T15:28:12.566Z,54.50
2023-02-09T15:30:49.085Z,54.50
2023-02-09T15:33:16.972Z,54.30
2023-02-09T15:35:50.400Z,54.30
2023-02-09T15:38:32.000Z,54.40
2023-02-09T15:41:24.784Z,54.50
2023-02-09T15:44:21.108Z,54.60
2023-02-09T15:47:12.370Z,54.70
2023-02-09T15:49:43.302Z,54.90
2023-02-09T15:52:25.247Z,54.90
2023-02-09T15:55:10.280Z,55.10
2023-02-09T15:57:42.127Z,55.40
2023-02-09T16:00:25.939Z,55.70
2023-02-09T16:03:00.867Z,56.10
2023-02-09T16:05:33.968Z,56.30
2023-02-09T16:08:11.375Z,56.40
2023-02-09T16:10:39.141Z,57.30
2023-02-09T16:13:29.693Z,57.00
2023-02-09T16:16:16.558Z,57.10
2023-02-09T16:19:11.027Z,57.30
2023-02-09T16:21:39.413Z,57.50
2023-02-09T16:24:43.136Z,57.80
2023-02-09T16:27:26.538Z,58.00
2023-02-09T16:30:10.080Z,58.10
2023-02-09T16:32:45.439Z,58.30
2023-02-09T16:35:26.573Z,58.50
2023-02-09T16:38:00.069Z,58.60
2023-02-09T16:40:37.204Z,58.70
2023-02-09T16:43:14.352Z,58.80
2023-02-09T16:46:03.410Z,59.00
2023-02-09T16:48:44.301Z,59.00
2023-02-09T16:51:29.060Z,59.20
2023-02-09T16:54:02.716Z,59.30
2023-02-09T16:56:54.553Z,59.40
2023-02-09T16:59:30.653Z,59.50
2023-02-09T17:02:14.523Z,59.60
2023-02-09T17:04:47.874Z,59.80
2023-02-09T17:10:31.624Z,60.00
2023-02-09T17:13:16.306Z,60.20
2023-02-09T17:16:12.980Z,60.40
2023-02-09T17:18:47.526Z,60.60
2023-02-09T17:21:26.563Z,60.70
2023-02-09T17:24:02.814Z,60.80
2023-02-09T17:26:34.319Z,61.00
2023-02-09T17:29:04.524Z,61.40
2023-02-09T17:31:52.443Z,61.50
2023-02-09T17:34:29.070Z,61.70
2023-02-09T17:37:00.507Z,61.90
2023-02-09T17:39:29.443Z,61.90
2023-02-09T17:41:57.504Z,62.10
2023-02-09T17:44:43.775Z,62.20
2023-02-09T17:47:17.132Z,62.40
2023-02-09T17:49:44.068Z,62.60
2023-02-09T17:52:18.948Z,62.60
2023-02-09T17:54:46.007Z,62.70
2023-02-09T17:57:17.045Z,62.70
2023-02-09T17:59:44.092Z,62.70
2023-02-09T18:02:18.098Z,63.30
2023-02-09T18:04:45.414Z,63.00
2023-02-09T18:07:13.988Z,63.10
2023-02-09T18:09:40.889Z,63.20
2023-02-09T18:12:16.816Z,63.30
2023-02-09T18:14:43.941Z,63.40
2023-02-09T18:17:14.250Z,63.70
2023-02-09T18:19:41.635Z,63.60
2023-02-09T18:22:13.852Z,63.70
2023-02-09T18:24:41.929Z,63.80
2023-02-09T18:27:21.059Z,64.00
2023-02-09T18:29:48.059Z,64.10
2023-02-09T18:32:16.509Z,64.00
2023-02-09T18:34:43.523Z,64.10
2023-02-09T18:37:10.929Z,64.20
2023-02-09T18:39:40.977Z,64.30
2023-02-09T18:42:08.024Z,64.30
2023-02-09T18:44:35.001Z,64.40
2023-02-09T18:47:02.120Z,64.40
2023-02-09T18:49:29.981Z,64.40
2023-02-09T18:51:58.831Z,64.50
2023-02-09T18:54:27.725Z,64.70
2023-02-09T18:56:55.525Z,64.80
2023-02-09T18:59:22.450Z,64.90
2023-02-09T19:01:50.717Z,65.10
2023-02-09T19:04:18.719Z,65.20
2023-02-09T19:06:45.608Z,65.40
2023-02-09T19:09:12.716Z,65.70
2023-02-09T19:11:39.645Z,65.60
2023-02-09T19:14:25.200Z,65.60
2023-02-09T19:16:52.093Z,65.70
2023-02-09T19:19:20.310Z,65.80
2023-02-09T19:21:47.690Z,66.00
2023-02-09T19:24:14.641Z,66.00
2023-02-09T19:26:41.568Z,66.00
2023-02-09T19:29:08.596Z,66.00
2023-02-09T19:31:35.745Z,66.10
2023-02-09T19:34:02.723Z,66.20
2023-02-09T19:36:29.725Z,66.40
2023-02-09T19:38:56.649Z,66.50
2023-02-09T19:41:25.531Z,66.60
2023-02-09T19:43:57.187Z,66.80
2023-02-09T19:46:25.259Z,66.80
2023-02-09T19:48:55.555Z,66.90
2023-02-09T19:51:23.191Z,66.60
2023-02-09T19:53:50.677Z,66.50
2023-02-09T19:56:20.671Z,66.50
2023-02-09T19:58:47.641Z,66.60
2023-02-09T20:01:14.821Z,66.70
2023-02-09T20:03:41.783Z,66.80
2023-02-09T20:06:10.828Z,66.70
2023-02-09T20:08:38.429Z,66.80
2023-02-09T20:11:10.825Z,66.80
2023-02-09T20:13:37.975Z,66.90
2023-02-09T20:16:17.238Z,67.00
2023-02-09T20:18:46.741Z,67.00
2023-02-09T20:21:18.270Z,66.90
2023-02-09T20:23:46.681Z,67.00
2023-02-09T20:26:22.737Z,67.00
2023-02-09T20:28:50.506Z,67.20
2023-02-09T20:31:28.021Z,67.30
2023-02-09T20:33:55.552Z,67.20
2023-02-09T20:36:24.454Z,67.40
2023-02-09T20:38:52.382Z,67.40
2023-02-09T20:41:19.329Z,67.50
2023-02-09T20:44:05.178Z,67.70
2023-02-09T20:46:52.103Z,67.80
2023-02-09T20:49:19.714Z,67.80
2023-02-09T20:51:46.885Z,67.90
2023-02-09T20:54:14.702Z,68.60
2023-02-09T20:56:42.259Z,68.00
2023-02-09T20:59:09.625Z,68.00
2023-02-09T21:01:38.331Z,68.00
2023-02-09T21:04:07.356Z,68.00
2023-02-09T21:06:37.080Z,68.10
2023-02-09T21:09:09.299Z,68.00
2023-02-09T21:11:36.421Z,68.00
2023-02-09T21:14:03.489Z,67.90
2023-02-09T21:16:31.184Z,68.00
2023-02-09T21:18:59.254Z,68.10
2023-02-09T21:21:27.197Z,68.10
2023-02-09T21:23:54.357Z,68.10
2023-02-09T21:26:22.775Z,68.10
2023-02-09T21:28:52.065Z,68.20
2023-02-09T21:31:21.803Z,68.20
2023-02-09T21:33:48.815Z,68.40
2023-02-09T21:36:15.732Z,68.40
2023-02-09T21:38:42.717Z,68.40
2023-02-09T21:41:39.343Z,68.50
2023-02-09T21:44:07.556Z,68.70
2023-02-09T21:46:34.908Z,68.50
2023-02-09T21:49:02.145Z,68.30
2023-02-09T21:51:29.088Z,68.40
2023-02-09T21:53:57.075Z,68.70
2023-02-09T21:56:24.205Z,68.80
2023-02-09T21:58:51.235Z,68.70
2023-02-09T22:01:18.291Z,68.60
2023-02-09T22:03:49.726Z,68.70
2023-02-09T22:06:17.059Z,68.90
2023-02-09T22:08:44.203Z,68.90
2023-02-09T22:11:11.225Z,69.00
2023-02-09T22:13:38.165Z,69.10
2023-02-09T22:16:09.711Z,69.20
2023-02-09T22:18:37.388Z,69.30
2023-02-09T22:21:08.223Z,69.40
2023-02-09T22:23:35.451Z,69.40
2023-02-09T22:26:04.893Z,69.40
2023-02-09T22:28:35.075Z,69.30
2023-02-09T22:31:08.147Z,69.30
2023-02-09T22:33:36.043Z,69.30
2023-02-09T22:36:08.160Z,69.30
2023-02-09T22:38:36.593Z,69.20
2023-02-09T22:41:21.354Z,69.40
2023-02-09T22:44:01.706Z,69.40
2023-02-09T22:46:34.858Z,69.30
2023-02-09T22:49:07.845Z,69.40
2023-02-09T22:51:36.394Z,69.30
2023-02-09T22:54:04.810Z,69.40
2023-02-09T22:56:32.561Z,69.40
2023-02-09T22:59:00.838Z,69.30
2023-02-09T23:01:28.318Z,69.30
2023-02-09T23:03:55.990Z,69.30
2023-02-09T23:06:27.004Z,69.40
2023-02-09T23:08:55.771Z,69.60
2023-02-09T23:11:23.153Z,69.60
2023-02-09T23:13:55.094Z,69.60
2023-02-09T23:16:34.397Z,69.60
2023-02-09T23:19:06.964Z,69.70
2023-02-09T23:21:40.172Z,69.60
2023-02-09T23:24:07.398Z,69.60
2023-02-09T23:26:34.793Z,69.60
2023-02-09T23:29:04.428Z,69.70
2023-02-09T23:31:33.267Z,69.80
2023-02-09T23:34:00.341Z,69.80
2023-02-09T23:36:30.085Z,69.70
2023-02-09T23:39:00.098Z,69.50
2023-02-09T23:41:27.710Z,69.70
2023-02-09T23:43:55.114Z,69.80
2023-02-09T23:46:25.743Z,70.00
2023-02-09T23:48:54.809Z,70.10
2023-02-09T23:51:28.540Z,70.30
2023-02-09T23:54:00.479Z,70.50
2023-02-09T23:56:29.887Z,70.30
2023-02-09T23:58:56.897Z,70.30
